createdAt,value
2023-01-11T00:03:01.563Z,66.01
2023-01-11T00:06:04.889Z,66.30
2023-01-11T00:09:07.026Z,67.04
2023-01-11T00:12:12.293Z,67.27
2023-01-11T00:15:15.392Z,68.02
2023-01-11T00:18:17.544Z,69.28
2023-01-11T00:21:19.927Z,67.29
2023-01-11T00:24:22.154Z,67.06
2023-01-11T00:27:24.314Z,68.73
2023-01-11T00:30:26.499Z,68.08
2023-01-11T00:33:28.704Z,68.03
2023-01-11T00:36:30.814Z,68.79
2023-01-11T00:39:32.930Z,66.98
2023-01-11T00:42:53.818Z,67.40
2023-01-11T00:46:17.039Z,68.00
2023-01-11T00:49:19.249Z,67.99
2023-01-11T00:52:21.436Z,67.39
2023-01-11T00:55:23.941Z,67.47
2023-01-11T00:58:26.085Z,66.68
2023-01-11T01:01:28.231Z,67.92
2023-01-11T01:04:30.470Z,67.52
2023-01-11T01:07:32.599Z,66.56
2023-01-11T01:10:34.743Z,66.58
2023-01-11T01:13:55.516Z,67.67
2023-01-11T01:17:01.544Z,67.67
2023-01-11T01:20:04.412Z,67.60
2023-01-11T01:23:06.553Z,67.14
2023-01-11T01:26:08.752Z,67.03
2023-01-11T01:29:11.816Z,67.70
2023-01-11T01:32:13.983Z,68.29
2023-01-11T01:35:16.133Z,68.18
2023-01-11T01:38:18.230Z,65.71
2023-01-11T01:41:20.657Z,68.28
2023-01-11T01:44:47.478Z,66.43
2023-01-11T01:47:55.524Z,66.21
2023-01-11T01:51:00.246Z,66.37
2023-01-11T01:54:06.350Z,66.95
2023-01-11T01:57:15.929Z,66.94
2023-01-11T02:00:18.465Z,66.81
2023-01-11T02:03:25.587Z,66.30
2023-01-11T02:06:27.836Z,66.73
2023-01-11T02:09:39.198Z,67.74
2023-01-11T02:13:00.999Z,67.64
2023-01-11T02:16:09.438Z,67.84
2023-01-11T02:19:30.788Z,66.69
2023-01-11T02:22:45.272Z,66.69
2023-01-11T02:26:25.138Z,66.72
2023-01-11T02:29:38.144Z,67.12
2023-01-11T02:32:49.393Z,67.40
2023-01-11T02:36:24.475Z,67.06
2023-01-11T02:39:32.477Z,67.20
2023-01-11T02:43:19.439Z,67.56
2023-01-11T02:46:42.541Z,66.99
2023-01-11T02:50:11.176Z,67.29
2023-01-11T02:53:17.246Z,66.69
2023-01-11T02:56:23.217Z,67.94
2023-01-11T02:59:31.298Z,67.15
2023-01-11T03:02:33.550Z,68.01
2023-01-11T03:05:40.112Z,66.59
2023-01-11T03:09:19.004Z,67.47
2023-01-11T03:12:57.618Z,67.51
2023-01-11T03:16:21.138Z,67.12
2023-01-11T03:19:39.919Z,67.83
2023-01-11T03:23:07.237Z,66.84
2023-01-11T03:26:18.153Z,67.38
2023-01-11T03:29:20.182Z,67.81
2023-01-11T03:32:29.775Z,67.86
2023-01-11T03:35:51.233Z,67.53
2023-01-11T03:39:19.315Z,67.35
2023-01-11T03:42:22.036Z,67.18
2023-01-11T03:45:25.585Z,67.93
2023-01-11T03:48:32.382Z,67.54
2023-01-11T03:51:46.211Z,67.41
2023-01-11T03:54:48.942Z,67.80
2023-01-11T03:57:52.296Z,67.33
2023-01-11T04:00:58.078Z,67.17
2023-01-11T04:04:00.483Z,67.96
2023-01-11T04:07:02.587Z,67.58
2023-01-11T04:10:05.243Z,68.76
2023-01-11T04:13:07.413Z,68.32
2023-01-11T04:16:09.602Z,67.89
2023-01-11T04:19:11.815Z,66.61
2023-01-11T04:22:16.961Z,66.61
2023-01-11T04:25:19.097Z,68.54
2023-01-11T04:28:21.302Z,67.76
2023-01-11T04:31:23.454Z,69.19
2023-01-11T04:34:28.430Z,67.46
2023-01-11T04:37:30.552Z,69.12
2023-01-11T04:40:32.696Z,67.74
2023-01-11T04:43:34.852Z,66.89
2023-01-11T04:46:37.026Z,68.22
2023-01-11T04:49:39.191Z,67.83
2023-01-11T04:52:41.808Z,69.75
2023-01-11T04:55:44.063Z,67.23
2023-01-11T04:58:46.262Z,68.16
2023-01-11T05:01:48.394Z,68.31
2023-01-11T05:04:50.551Z,68.41
2023-01-11T05:07:52.720Z,68.06
2023-01-11T05:10:55.817Z,67.77
2023-01-11T05:13:59.930Z,67.75
2023-01-11T05:17:02.151Z,66.49
2023-01-11T05:20:04.858Z,67.00
2023-01-11T05:23:07.013Z,68.92
2023-01-11T05:26:11.797Z,68.38
2023-01-11T05:29:20.398Z,69.14
2023-01-11T05:32:22.536Z,67.90
2023-01-11T05:35:24.702Z,68.41
2023-01-11T05:38:27.334Z,68.47
2023-01-11T05:41:29.486Z,67.25
2023-01-11T05:44:50.224Z,68.03
2023-01-11T05:47:53.437Z,69.06
2023-01-11T05:50:56.440Z,68.60
2023-01-11T05:53:59.469Z,68.66
2023-01-11T05:57:01.635Z,68.71
2023-01-11T06:00:04.512Z,68.00
2023-01-11T06:03:08.612Z,69.42
2023-01-11T06:06:10.958Z,67.96
2023-01-11T06:09:13.131Z,66.16
2023-01-11T06:12:15.343Z,68.06
2023-01-11T06:15:17.507Z,68.77
2023-01-11T06:18:20.357Z,69.11
2023-01-11T06:21:22.598Z,68.11
2023-01-11T06:24:24.845Z,68.59
2023-01-11T06:27:27.148Z,69.55
2023-01-11T06:30:29.418Z,69.77
2023-01-11T06:33:32.009Z,68.34
2023-01-11T06:36:34.267Z,69.53
2023-01-11T06:39:36.480Z,68.75
2023-01-11T06:42:38.774Z,66.77
2023-01-11T06:45:44.088Z,68.09
2023-01-11T06:48:46.473Z,69.13
2023-01-11T06:51:48.601Z,68.85
2023-01-11T06:54:50.883Z,65.96
2023-01-11T06:57:53.307Z,71.40
2023-01-11T07:00:57.148Z,67.43
2023-01-11T07:03:59.714Z,71.12
2023-01-11T07:07:02.125Z,68.42
2023-01-11T07:10:09.200Z,68.66
2023-01-11T07:13:12.638Z,67.72
2023-01-11T07:16:17.739Z,67.53
2023-01-11T07:19:20.419Z,67.36
2023-01-11T07:22:22.935Z,67.10
2023-01-11T07:25:27.662Z,67.14
2023-01-11T07:28:30.735Z,67.67
2023-01-11T07:31:32.949Z,67.17
2023-01-11T07:34:35.264Z,67.37
2023-01-11T07:37:38.141Z,67.80
2023-01-11T07:40:40.403Z,67.92
2023-01-11T07:43:42.565Z,68.02
2023-01-11T07:46:44.749Z,67.55
2023-01-11T07:49:47.142Z,68.60
2023-01-11T07:52:50.185Z,67.46
2023-01-11T07:55:52.557Z,68.05
2023-01-11T07:58:54.884Z,68.44
2023-01-11T08:05:42.862Z,67.34
2023-01-11T08:08:45.635Z,67.39
2023-01-11T08:12:12.539Z,67.73
2023-01-11T08:15:15.504Z,67.62
2023-01-11T08:18:17.802Z,68.23
2023-01-11T08:21:21.430Z,68.05
2023-01-11T08:24:23.701Z,67.52
2023-01-11T08:27:25.812Z,67.64
2023-01-11T08:30:28.850Z,66.96
2023-01-11T08:33:30.974Z,67.52
2023-01-11T08:36:33.134Z,66.42
2023-01-11T08:39:35.391Z,66.59
2023-01-11T08:42:37.607Z,65.77
2023-01-11T08:45:39.754Z,65.69
2023-01-11T08:48:42.284Z,63.44
2023-01-11T08:51:44.515Z,62.21
2023-01-11T08:54:46.942Z,64.59
2023-01-11T08:57:49.532Z,64.17
2023-01-11T09:01:00.074Z,64.53
2023-01-11T09:04:12.561Z,64.43
2023-01-11T09:07:27.088Z,64.61
2023-01-11T09:10:29.922Z,64.00
2023-01-11T09:13:32.327Z,63.17
2023-01-11T09:16:34.469Z,63.32
2023-01-11T09:19:36.899Z,60.83
2023-01-11T09:22:39.711Z,64.60
2023-01-11T09:25:45.216Z,64.23
2023-01-11T09:28:47.788Z,63.67
2023-01-11T09:31:50.393Z,59.90
2023-01-11T09:34:57.312Z,61.55
2023-01-11T09:37:59.969Z,60.79
2023-01-11T09:41:16.747Z,63.47
2023-01-11T09:44:23.325Z,62.74
2023-01-11T09:47:38.444Z,60.95
2023-01-11T09:50:43.826Z,61.05
2023-01-11T09:53:52.313Z,61.31
2023-01-11T09:57:23.851Z,61.55
2023-01-11T10:04:06.318Z,61.06
2023-01-11T10:07:39.551Z,60.50
2023-01-11T10:18:26.286Z,59.29
2023-01-11T10:18:27.368Z,57.96
2023-01-11T10:21:50.743Z,60.75
2023-01-11T10:25:05.536Z,60.63
2023-01-11T10:28:17.383Z,60.49
2023-01-11T10:31:30.507Z,58.95
2023-01-11T10:34:42.813Z,58.04
2023-01-11T10:38:05.074Z,57.67
2023-01-11T10:41:20.416Z,53.76
2023-01-11T10:45:05.636Z,56.98
2023-01-11T10:48:25.178Z,57.74
2023-01-11T10:51:49.116Z,57.35
2023-01-11T10:55:12.405Z,52.42
2023-01-11T11:02:49.428Z,54.40
2023-01-11T11:05:55.100Z,52.43
2023-01-11T11:09:05.719Z,53.47
2023-01-11T11:12:28.389Z,55.36
2023-01-11T11:15:44.312Z,53.62
2023-01-11T11:18:52.637Z,55.80
2023-01-11T11:21:55.624Z,53.67
2023-01-11T11:25:01.804Z,49.62
2023-01-11T11:28:22.361Z,48.58
2023-01-11T11:31:24.636Z,47.38
2023-01-11T11:34:46.310Z,46.77
2023-01-11T11:37:49.056Z,47.74
2023-01-11T11:41:04.586Z,42.50
2023-01-11T11:44:24.405Z,41.36
2023-01-11T11:47:30.033Z,43.00
2023-01-11T11:50:45.162Z,40.50
2023-01-11T11:53:55.761Z,39.56
2023-01-11T11:57:20.288Z,38.87
2023-01-11T12:00:37.329Z,36.34
2023-01-11T12:03:42.912Z,35.18
2023-01-11T12:07:14.819Z,34.29
2023-01-11T12:10:21.260Z,34.55
2023-01-11T12:13:40.360Z,34.43
2023-01-11T12:16:44.271Z,35.56
2023-01-11T12:19:47.909Z,33.33
2023-01-11T12:22:51.000Z,33.35
2023-01-11T12:26:00.626Z,32.52
2023-01-11T12:29:09.568Z,32.45
2023-01-11T12:32:30.584Z,31.51
2023-01-11T12:35:49.955Z,32.82
2023-01-11T12:39:10.992Z,32.29
2023-01-11T12:42:16.112Z,31.60
2023-01-11T12:45:25.996Z,31.88
2023-01-11T12:48:41.178Z,30.75
2023-01-11T12:52:00.730Z,30.97
2023-01-11T12:55:29.947Z,31.18
2023-01-11T12:58:51.329Z,31.38
2023-01-11T13:02:03.516Z,31.51
2023-01-11T13:05:33.635Z,32.14
2023-01-11T13:08:56.451Z,30.84
2023-01-11T13:12:20.079Z,30.28
2023-01-11T13:15:34.688Z,30.58
2023-01-11T13:18:46.491Z,31.02
2023-01-11T13:21:59.034Z,30.63
2023-01-11T13:25:04.488Z,31.48
2023-01-11T13:28:32.748Z,31.32
2023-01-11T13:31:36.097Z,30.18
2023-01-11T13:34:47.521Z,29.80
2023-01-11T13:38:04.665Z,29.12
2023-01-11T13:41:35.545Z,29.45
2023-01-11T13:44:43.671Z,30.29
2023-01-11T13:47:52.057Z,31.71
2023-01-11T13:51:11.640Z,30.33
2023-01-11T13:54:20.829Z,31.27
2023-01-11T13:57:35.494Z,30.92
2023-01-11T14:01:07.601Z,32.04
2023-01-11T14:04:25.780Z,32.22
2023-01-11T14:08:05.971Z,32.16
2023-01-11T14:11:28.344Z,32.72
2023-01-11T14:14:39.621Z,32.89
2023-01-11T14:18:05.651Z,33.18
2023-01-11T14:21:10.655Z,33.85
2023-01-11T14:24:13.988Z,36.61
2023-01-11T14:27:28.057Z,35.68
2023-01-11T14:30:42.162Z,36.34
2023-01-11T14:34:09.056Z,37.67
2023-01-11T14:37:31.075Z,38.87
2023-01-11T14:40:39.223Z,39.81
2023-01-11T14:43:44.480Z,40.38
2023-01-11T14:47:11.112Z,42.37
2023-01-11T14:50:20.296Z,42.50
2023-01-11T14:53:36.809Z,44.03
2023-01-11T14:56:41.991Z,43.90
2023-01-11T14:59:44.172Z,43.73
2023-01-11T15:02:59.622Z,44.35
2023-01-11T15:06:09.965Z,47.14
2023-01-11T15:09:48.108Z,47.15
2023-01-11T15:12:55.755Z,48.89
2023-01-11T15:16:34.959Z,50.96
2023-01-11T15:19:39.679Z,50.96
2023-01-11T15:22:41.958Z,51.60
2023-01-11T15:25:47.367Z,52.84
2023-01-11T15:28:55.112Z,53.02
2023-01-11T15:32:06.790Z,53.11
2023-01-11T15:35:32.471Z,54.84
2023-01-11T15:38:38.001Z,54.42
2023-01-11T15:42:04.658Z,54.44
2023-01-11T15:45:33.075Z,55.47
2023-01-11T15:48:53.537Z,55.51
2023-01-11T15:52:29.756Z,56.14
2023-01-11T15:56:05.754Z,56.40
2023-01-11T15:59:07.827Z,56.75
2023-01-11T16:02:12.953Z,57.48
2023-01-11T16:05:29.689Z,56.97
2023-01-11T16:08:58.902Z,56.22
2023-01-11T16:12:25.842Z,57.03
2023-01-11T16:16:05.877Z,58.13
2023-01-11T16:19:15.096Z,57.33
2023-01-11T16:22:22.494Z,58.53
2023-01-11T16:25:29.343Z,59.67
2023-01-11T16:28:31.566Z,58.38
2023-01-11T16:31:58.468Z,59.14
2023-01-11T16:35:01.776Z,59.19
2023-01-11T16:38:05.258Z,59.94
2023-01-11T16:41:08.845Z,59.78
2023-01-11T16:44:41.495Z,59.79
2023-01-11T16:48:01.638Z,60.35
2023-01-11T16:51:16.325Z,60.22
2023-01-11T16:54:24.323Z,61.10
2023-01-11T16:57:31.027Z,61.49
2023-01-11T17:00:38.473Z,61.60
2023-01-11T17:03:46.762Z,62.53
2023-01-11T17:06:48.950Z,62.83
2023-01-11T17:09:51.715Z,63.10
2023-01-11T17:13:46.045Z,63.64
2023-01-11T17:16:59.934Z,63.64
2023-01-11T17:20:02.597Z,63.21
2023-01-11T17:23:05.229Z,63.25
2023-01-11T17:26:14.456Z,63.15
2023-01-11T17:29:23.472Z,63.27
2023-01-11T17:32:41.445Z,63.96
2023-01-11T17:35:43.596Z,62.36
2023-01-11T17:38:45.841Z,61.60
2023-01-11T17:42:06.425Z,62.05
2023-01-11T17:45:24.077Z,62.44
2023-01-11T17:48:27.406Z,61.91
2023-01-11T17:51:32.580Z,61.06
2023-01-11T17:54:34.820Z,62.46
2023-01-11T17:57:37.032Z,62.02
2023-01-11T18:00:40.711Z,61.46
2023-01-11T18:03:45.999Z,60.86
2023-01-11T18:06:49.138Z,62.13
2023-01-11T18:09:58.114Z,61.19
2023-01-11T18:13:00.446Z,61.76
2023-01-11T18:16:03.309Z,61.95
2023-01-11T18:19:24.210Z,62.54
2023-01-11T18:22:40.527Z,61.92
2023-01-11T18:25:45.961Z,62.53
2023-01-11T18:28:49.951Z,63.85
2023-01-11T18:31:53.262Z,64.16
2023-01-11T18:34:55.523Z,63.78
2023-01-11T18:37:57.685Z,63.46
2023-01-11T18:41:24.429Z,64.50
2023-01-11T18:44:28.524Z,63.79
2023-01-11T18:47:30.785Z,64.84
2023-01-11T18:50:41.248Z,64.40
2023-01-11T18:53:43.370Z,63.80
2023-01-11T18:56:45.580Z,64.22
2023-01-11T18:59:48.347Z,63.84
2023-01-11T19:05:53.827Z,65.19
2023-01-11T19:08:55.968Z,64.87
2023-01-11T19:11:58.181Z,64.00
2023-01-11T19:15:00.385Z,64.52
2023-01-11T19:18:03.407Z,64.56
2023-01-11T19:21:06.650Z,64.53
2023-01-11T19:24:08.975Z,64.83
2023-01-11T19:27:13.367Z,64.59
2023-01-11T19:30:15.719Z,64.63
2023-01-11T19:33:18.254Z,64.45
2023-01-11T19:36:20.497Z,63.47
2023-01-11T19:39:22.679Z,63.76
2023-01-11T19:42:24.883Z,64.52
2023-01-11T19:45:27.062Z,64.89
2023-01-11T19:48:33.079Z,64.63
2023-01-11T19:51:35.312Z,65.99
2023-01-11T19:54:38.187Z,66.39
2023-01-11T19:57:40.519Z,65.20
2023-01-11T20:00:42.740Z,64.44
2023-01-11T20:03:45.169Z,64.17
2023-01-11T20:06:52.129Z,64.74
2023-01-11T20:09:54.408Z,64.78
2023-01-11T20:12:58.586Z,65.25
2023-01-11T20:16:14.919Z,64.61
2023-01-11T20:19:17.519Z,64.59
2023-01-11T20:22:26.150Z,64.31
2023-01-11T20:25:28.450Z,64.67
2023-01-11T20:28:32.509Z,65.47
2023-01-11T20:31:35.629Z,64.72
2023-01-11T20:34:37.906Z,64.76
2023-01-11T20:37:40.138Z,64.23
2023-01-11T20:40:42.417Z,64.85
2023-01-11T20:43:44.682Z,64.72
2023-01-11T20:46:48.395Z,65.22
2023-01-11T20:49:50.688Z,64.56
2023-01-11T20:52:53.175Z,64.32
2023-01-11T20:55:56.306Z,65.44
2023-01-11T20:58:58.564Z,64.72
2023-01-11T21:02:00.893Z,64.39
2023-01-11T21:05:05.963Z,66.09
2023-01-11T21:08:08.150Z,64.80
2023-01-11T21:11:12.196Z,64.40
2023-01-11T21:14:14.444Z,65.28
2023-01-11T21:17:17.387Z,64.93
2023-01-11T21:20:19.595Z,65.30
2023-01-11T21:23:21.753Z,64.19
2023-01-11T21:26:24.859Z,64.97
2023-01-11T21:29:27.029Z,64.55
2023-01-11T21:32:29.221Z,64.38
2023-01-11T21:35:33.941Z,64.67
2023-01-11T21:38:36.115Z,64.19
2023-01-11T21:41:58.755Z,64.95
2023-01-11T21:45:01.054Z,64.65
2023-01-11T21:48:03.222Z,64.06
2023-01-11T21:51:11.663Z,64.61
2023-01-11T21:54:15.017Z,65.65
2023-01-11T21:57:17.151Z,66.11
2023-01-11T22:00:19.928Z,65.88
2023-01-11T22:03:29.353Z,66.27
2023-01-11T22:06:31.838Z,64.57
2023-01-11T22:09:34.219Z,64.29
2023-01-11T22:12:36.406Z,64.18
2023-01-11T22:15:38.679Z,63.85
2023-01-11T22:18:41.417Z,64.17
2023-01-11T22:21:44.008Z,63.40
2023-01-11T22:24:46.440Z,63.36
2023-01-11T22:27:48.573Z,64.07
2023-01-11T22:30:50.716Z,63.69
2023-01-11T22:33:53.253Z,64.28
2023-01-11T22:36:55.661Z,63.91
2023-01-11T22:40:00.709Z,64.10
2023-01-11T22:43:03.595Z,64.25
2023-01-11T22:46:05.940Z,64.55
2023-01-11T22:49:08.389Z,63.72
2023-01-11T22:52:10.578Z,63.83
2023-01-11T22:55:12.726Z,64.42
2023-01-11T22:58:14.974Z,63.74
2023-01-11T23:01:20.342Z,63.99
2023-01-11T23:04:22.617Z,63.81
2023-01-11T23:07:24.794Z,63.32
2023-01-11T23:10:26.922Z,63.04
2023-01-11T23:13:47.777Z,63.30
2023-01-11T23:16:52.581Z,64.29
2023-01-11T23:19:54.755Z,64.05
2023-01-11T23:22:56.873Z,63.86
2023-01-11T23:25:59.175Z,63.36
2023-01-11T23:29:01.568Z,63.76
2023-01-11T23:32:03.956Z,63.27
2023-01-11T23:35:06.626Z,63.43
2023-01-11T23:38:08.787Z,62.80
2023-01-11T23:41:31.551Z,64.17
2023-01-11T23:44:33.918Z,63.46
2023-01-11T23:47:36.046Z,62.75
2023-01-11T23:50:38.256Z,62.95
2023-01-11T23:53:40.584Z,62.69
2023-01-11T23:56:42.873Z,62.38
2023-01-11T23:59:45.462Z,64.14
